YCCY

Cloncurry Airport

Cloncurry, Australia
METAR YCCY 212000Z AUTO 21006KT //// // ////// 21/M05 Q1011
Observed Flight Rules
Oct-21 @ 20:00 UTC (an hour ago)
Wind
210° at 6 knots
Temperatures Readings
Current 21°C / 70°F
Dewpoint -5°C / 23°F
Humidity 17%
Altimeter 29.85" Hg
Pressure 1011 hPa
Elevation 570
METAR YCCY 212000Z AUTO 21006KT //// // ////// 21/M05 Q1011
Observed Flight Rules
Oct-21 @ 20:00 UTC
(an hour ago)
Wind
210° at 6 knots
Temperature Dewpoint
21°C / 70°F -5°C / 23°F
Humidity Altimeter Pressure
17% 29.85" Hg 1011 hPa